sensor_id;sensor_type;location;lat;lon;timestamp;P1;durP1;ratioP1;P2;durP2;ratioP2
80891;SDS011;70343;51.530;5.050;2023-09-30T00:00:26;11.77;;;7.50;;
80891;SDS011;70343;51.530;5.050;2023-09-30T00:02:52;10.68;;;7.93;;
80891;SDS011;70343;51.530;5.050;2023-09-30T00:05:17;14.68;;;7.70;;
80891;SDS011;70343;51.530;5.050;2023-09-30T00:07:48;10.43;;;7.30;;
80891;SDS011;70343;51.530;5.050;2023-09-30T00:10:13;11.38;;;6.97;;
80891;SDS011;70343;51.530;5.050;2023-09-30T00:12:40;11.93;;;7.30;;
80891;SDS011;70343;51.530;5.050;2023-09-30T00:15:05;10.90;;;7.68;;
80891;SDS011;70343;51.530;5.050;2023-09-30T00:17:32;12.55;;;7.65;;
80891;SDS011;70343;51.530;5.050;2023-09-30T00:19:58;11.57;;;7.40;;
80891;SDS011;70343;51.530;5.050;2023-09-30T00:22:24;11.40;;;7.40;;
80891;SDS011;70343;51.530;5.050;2023-09-30T00:24:49;11.32;;;7.40;;
80891;SDS011;70343;51.530;5.050;2023-09-30T00:27:15;9.90;;;6.45;;
80891;SDS011;70343;51.530;5.050;2023-09-30T00:29:40;12.18;;;7.45;;
80891;SDS011;70343;51.530;5.050;2023-09-30T00:32:07;11.48;;;6.63;;
80891;SDS011;70343;51.530;5.050;2023-09-30T00:34:33;11.95;;;7.20;;
80891;SDS011;70343;51.530;5.050;2023-09-30T00:36:59;10.70;;;7.30;;
80891;SDS011;70343;51.530;5.050;2023-09-30T00:39:25;11.50;;;8.02;;
80891;SDS011;70343;51.530;5.050;2023-09-30T00:41:54;13.00;;;7.20;;
80891;SDS011;70343;51.530;5.050;2023-09-30T00:44:20;14.38;;;7.90;;
80891;SDS011;70343;51.530;5.050;2023-09-30T00:46:46;10.95;;;7.85;;
80891;SDS011;70343;51.530;5.050;2023-09-30T00:49:12;16.30;;;6.90;;
80891;SDS011;70343;51.530;5.050;2023-09-30T00:51:39;11.05;;;7.10;;
80891;SDS011;70343;51.530;5.050;2023-09-30T00:54:05;12.82;;;7.70;;
80891;SDS011;70343;51.530;5.050;2023-09-30T00:56:31;11.52;;;7.47;;
80891;SDS011;70343;51.530;5.050;2023-09-30T00:58:57;11.63;;;7.90;;
80891;SDS011;70343;51.530;5.050;2023-09-30T01:01:24;11.93;;;7.95;;
80891;SDS011;70343;51.530;5.050;2023-09-30T01:03:50;12.40;;;8.50;;
80891;SDS011;70343;51.530;5.050;2023-09-30T01:06:16;11.98;;;7.78;;
80891;SDS011;70343;51.530;5.050;2023-09-30T01:08:41;12.10;;;7.45;;
80891;SDS011;70343;51.530;5.050;2023-09-30T01:11:07;14.77;;;7.65;;
80891;SDS011;70343;51.530;5.050;2023-09-30T01:13:34;10.38;;;6.70;;
80891;SDS011;70343;51.530;5.050;2023-09-30T01:16:08;10.68;;;6.88;;
80891;SDS011;70343;51.530;5.050;2023-09-30T01:18:35;12.68;;;7.90;;
80891;SDS011;70343;51.530;5.050;2023-09-30T01:21:06;12.55;;;7.00;;
80891;SDS011;70343;51.530;5.050;2023-09-30T01:23:32;11.05;;;8.05;;
80891;SDS011;70343;51.530;5.050;2023-09-30T01:26:04;13.07;;;8.02;;
80891;SDS011;70343;51.530;5.050;2023-09-30T01:28:34;13.57;;;8.50;;
80891;SDS011;70343;51.530;5.050;2023-09-30T01:31:00;14.05;;;8.27;;
80891;SDS011;70343;51.530;5.050;2023-09-30T01:33:27;10.43;;;7.32;;
80891;SDS011;70343;51.530;5.050;2023-09-30T01:35:53;13.05;;;7.93;;
80891;SDS011;70343;51.530;5.050;2023-09-30T01:38:19;12.65;;;7.47;;
80891;SDS011;70343;51.530;5.050;2023-09-30T01:40:46;12.40;;;7.93;;
80891;SDS011;70343;51.530;5.050;2023-09-30T01:43:12;13.10;;;7.45;;
80891;SDS011;70343;51.530;5.050;2023-09-30T01:45:39;11.38;;;7.30;;
80891;SDS011;70343;51.530;5.050;2023-09-30T01:48:05;9.90;;;6.80;;
80891;SDS011;70343;51.530;5.050;2023-09-30T01:50:31;12.50;;;7.63;;
80891;SDS011;70343;51.530;5.050;2023-09-30T01:52:58;11.95;;;7.65;;
80891;SDS011;70343;51.530;5.050;2023-09-30T01:55:23;14.70;;;9.00;;
80891;SDS011;70343;51.530;5.050;2023-09-30T01:57:49;12.40;;;8.55;;
80891;SDS011;70343;51.530;5.050;2023-09-30T02:00:14;10.80;;;7.60;;
80891;SDS011;70343;51.530;5.050;2023-09-30T02:02:41;14.20;;;8.43;;
80891;SDS011;70343;51.530;5.050;2023-09-30T02:05:07;14.98;;;8.65;;
80891;SDS011;70343;51.530;5.050;2023-09-30T02:07:33;13.75;;;8.52;;
80891;SDS011;70343;51.530;5.050;2023-09-30T02:09:59;13.68;;;8.75;;
80891;SDS011;70343;51.530;5.050;2023-09-30T02:12:26;11.32;;;8.75;;
80891;SDS011;70343;51.530;5.050;2023-09-30T02:14:53;11.25;;;8.35;;
80891;SDS011;70343;51.530;5.050;2023-09-30T02:17:19;13.98;;;8.75;;
80891;SDS011;70343;51.530;5.050;2023-09-30T02:19:44;18.73;;;9.13;;
80891;SDS011;70343;51.530;5.050;2023-09-30T02:22:10;12.68;;;8.85;;
80891;SDS011;70343;51.530;5.050;2023-09-30T02:24:37;14.35;;;8.82;;
80891;SDS011;70343;51.530;5.050;2023-09-30T02:27:05;13.38;;;8.02;;
80891;SDS011;70343;51.530;5.050;2023-09-30T02:29:31;14.75;;;9.02;;
80891;SDS011;70343;51.530;5.050;2023-09-30T02:31:56;14.13;;;7.93;;
80891;SDS011;70343;51.530;5.050;2023-09-30T02:34:22;17.05;;;10.15;;
80891;SDS011;70343;51.530;5.050;2023-09-30T02:36:47;10.93;;;7.43;;
80891;SDS011;70343;51.530;5.050;2023-09-30T02:39:14;13.95;;;8.57;;
80891;SDS011;70343;51.530;5.050;2023-09-30T02:41:41;15.10;;;8.82;;
80891;SDS011;70343;51.530;5.050;2023-09-30T02:44:07;12.68;;;8.25;;
80891;SDS011;70343;51.530;5.050;2023-09-30T02:46:33;11.32;;;8.65;;
80891;SDS011;70343;51.530;5.050;2023-09-30T02:49:00;14.57;;;9.95;;
80891;SDS011;70343;51.530;5.050;2023-09-30T02:51:26;14.20;;;8.95;;
80891;SDS011;70343;51.530;5.050;2023-09-30T02:53:53;12.55;;;8.75;;
80891;SDS011;70343;51.530;5.050;2023-09-30T02:56:18;15.00;;;8.38;;
80891;SDS011;70343;51.530;5.050;2023-09-30T02:58:45;13.48;;;7.57;;
80891;SDS011;70343;51.530;5.050;2023-09-30T03:01:15;12.80;;;9.38;;
80891;SDS011;70343;51.530;5.050;2023-09-30T03:03:44;13.93;;;8.90;;
80891;SDS011;70343;51.530;5.050;2023-09-30T03:06:10;13.68;;;8.77;;
80891;SDS011;70343;51.530;5.050;2023-09-30T03:08:36;13.43;;;8.77;;
80891;SDS011;70343;51.530;5.050;2023-09-30T03:11:02;11.35;;;7.25;;
80891;SDS011;70343;51.530;5.050;2023-09-30T03:13:27;13.30;;;7.50;;
80891;SDS011;70343;51.530;5.050;2023-09-30T03:15:53;13.27;;;7.60;;
80891;SDS011;70343;51.530;5.050;2023-09-30T03:18:18;15.93;;;9.13;;
80891;SDS011;70343;51.530;5.050;2023-09-30T03:20:51;14.20;;;8.50;;
80891;SDS011;70343;51.530;5.050;2023-09-30T03:23:22;17.42;;;9.13;;
80891;SDS011;70343;51.530;5.050;2023-09-30T03:25:55;14.75;;;7.97;;
80891;SDS011;70343;51.530;5.050;2023-09-30T03:28:24;14.15;;;9.30;;
80891;SDS011;70343;51.530;5.050;2023-09-30T03:30:50;16.25;;;11.15;;
80891;SDS011;70343;51.530;5.050;2023-09-30T03:33:15;17.17;;;9.20;;
80891;SDS011;70343;51.530;5.050;2023-09-30T03:35:42;13.77;;;9.55;;
80891;SDS011;70343;51.530;5.050;2023-09-30T03:38:08;12.82;;;7.97;;
80891;SDS011;70343;51.530;5.050;2023-09-30T03:40:35;13.27;;;8.55;;
80891;SDS011;70343;51.530;5.050;2023-09-30T03:43:03;13.75;;;8.85;;
80891;SDS011;70343;51.530;5.050;2023-09-30T03:45:30;14.90;;;7.93;;
80891;SDS011;70343;51.530;5.050;2023-09-30T03:48:01;15.18;;;9.48;;
80891;SDS011;70343;51.530;5.050;2023-09-30T03:50:27;14.63;;;9.48;;
80891;SDS011;70343;51.530;5.050;2023-09-30T03:53:00;18.27;;;7.82;;
80891;SDS011;70343;51.530;5.050;2023-09-30T03:57:57;14.82;;;9.10;;
80891;SDS011;70343;51.530;5.050;2023-09-30T04:00:22;18.58;;;9.50;;
80891;SDS011;70343;51.530;5.050;2023-09-30T04:02:49;14.77;;;9.98;;
80891;SDS011;70343;51.530;5.050;2023-09-30T04:05:18;15.25;;;9.50;;
80891;SDS011;70343;51.530;5.050;2023-09-30T04:07:44;16.15;;;9.57;;
80891;SDS011;70343;51.530;5.050;2023-09-30T04:10:09;14.45;;;9.02;;
80891;SDS011;70343;51.530;5.050;2023-09-30T04:12:35;14.50;;;9.93;;
80891;SDS011;70343;51.530;5.050;2023-09-30T04:15:02;11.98;;;8.38;;
80891;SDS011;70343;51.530;5.050;2023-09-30T04:17:28;15.88;;;8.77;;
80891;SDS011;70343;51.530;5.050;2023-09-30T04:19:54;13.88;;;8.65;;
80891;SDS011;70343;51.530;5.050;2023-09-30T04:22:19;15.75;;;10.30;;
80891;SDS011;70343;51.530;5.050;2023-09-30T04:24:46;12.93;;;8.15;;
80891;SDS011;70343;51.530;5.050;2023-09-30T04:27:14;15.13;;;9.65;;
80891;SDS011;70343;51.530;5.050;2023-09-30T04:29:40;15.65;;;8.75;;
80891;SDS011;70343;51.530;5.050;2023-09-30T04:32:07;14.93;;;9.45;;
80891;SDS011;70343;51.530;5.050;2023-09-30T04:34:32;17.98;;;8.90;;
80891;SDS011;70343;51.530;5.050;2023-09-30T04:36:58;16.95;;;9.75;;
80891;SDS011;70343;51.530;5.050;2023-09-30T04:39:24;17.17;;;9.57;;
80891;SDS011;70343;51.530;5.050;2023-09-30T04:41:50;17.75;;;9.75;;
80891;SDS011;70343;51.530;5.050;2023-09-30T04:44:15;15.02;;;9.23;;
80891;SDS011;70343;51.530;5.050;2023-09-30T04:46:41;16.48;;;10.30;;
80891;SDS011;70343;51.530;5.050;2023-09-30T04:49:11;15.63;;;9.27;;
80891;SDS011;70343;51.530;5.050;2023-09-30T04:51:39;16.95;;;8.77;;
80891;SDS011;70343;51.530;5.050;2023-09-30T04:54:05;18.05;;;8.90;;
80891;SDS011;70343;51.530;5.050;2023-09-30T04:56:33;17.40;;;9.98;;
80891;SDS011;70343;51.530;5.050;2023-09-30T04:59:00;13.98;;;8.85;;
80891;SDS011;70343;51.530;5.050;2023-09-30T05:01:26;13.48;;;8.50;;
80891;SDS011;70343;51.530;5.050;2023-09-30T05:03:53;15.32;;;8.95;;
80891;SDS011;70343;51.530;5.050;2023-09-30T05:06:19;13.70;;;9.27;;
80891;SDS011;70343;51.530;5.050;2023-09-30T05:08:44;15.95;;;8.75;;
80891;SDS011;70343;51.530;5.050;2023-09-30T05:11:10;16.00;;;9.32;;
80891;SDS011;70343;51.530;5.050;2023-09-30T05:13:35;17.88;;;10.35;;
80891;SDS011;70343;51.530;5.050;2023-09-30T05:16:01;15.35;;;9.65;;
80891;SDS011;70343;51.530;5.050;2023-09-30T05:18:28;13.15;;;8.55;;
80891;SDS011;70343;51.530;5.050;2023-09-30T05:20:54;16.15;;;9.00;;
80891;SDS011;70343;51.530;5.050;2023-09-30T05:23:20;13.48;;;8.68;;
80891;SDS011;70343;51.530;5.050;2023-09-30T05:25:46;15.43;;;9.00;;
80891;SDS011;70343;51.530;5.050;2023-09-30T05:28:11;15.82;;;9.20;;
80891;SDS011;70343;51.530;5.050;2023-09-30T05:30:38;15.85;;;9.02;;
80891;SDS011;70343;51.530;5.050;2023-09-30T05:33:05;14.70;;;9.38;;
80891;SDS011;70343;51.530;5.050;2023-09-30T05:35:31;12.82;;;8.80;;
80891;SDS011;70343;51.530;5.050;2023-09-30T05:37:57;17.98;;;9.52;;
80891;SDS011;70343;51.530;5.050;2023-09-30T05:40:23;17.08;;;8.35;;
80891;SDS011;70343;51.530;5.050;2023-09-30T05:42:51;17.35;;;9.70;;
80891;SDS011;70343;51.530;5.050;2023-09-30T05:45:21;18.23;;;9.32;;
80891;SDS011;70343;51.530;5.050;2023-09-30T05:48:00;16.88;;;9.57;;
80891;SDS011;70343;51.530;5.050;2023-09-30T05:50:29;14.90;;;8.73;;
80891;SDS011;70343;51.530;5.050;2023-09-30T05:52:56;16.45;;;10.57;;
80891;SDS011;70343;51.530;5.050;2023-09-30T05:55:22;18.92;;;10.45;;
80891;SDS011;70343;51.530;5.050;2023-09-30T05:57:50;17.65;;;9.80;;
80891;SDS011;70343;51.530;5.050;2023-09-30T06:00:17;13.90;;;9.35;;
80891;SDS011;70343;51.530;5.050;2023-09-30T06:02:53;15.65;;;9.57;;
80891;SDS011;70343;51.530;5.050;2023-09-30T06:05:20;22.60;;;8.90;;
80891;SDS011;70343;51.530;5.050;2023-09-30T06:07:47;15.68;;;8.65;;
80891;SDS011;70343;51.530;5.050;2023-09-30T06:10:14;19.40;;;9.52;;
80891;SDS011;70343;51.530;5.050;2023-09-30T06:12:52;16.38;;;9.50;;
80891;SDS011;70343;51.530;5.050;2023-09-30T06:15:21;15.68;;;8.27;;
80891;SDS011;70343;51.530;5.050;2023-09-30T06:17:49;21.92;;;9.15;;
80891;SDS011;70343;51.530;5.050;2023-09-30T06:20:15;12.68;;;8.32;;
80891;SDS011;70343;51.530;5.050;2023-09-30T06:22:45;14.90;;;9.13;;
80891;SDS011;70343;51.530;5.050;2023-09-30T06:25:12;17.52;;;10.15;;
80891;SDS011;70343;51.530;5.050;2023-09-30T06:30:11;13.38;;;8.50;;
80891;SDS011;70343;51.530;5.050;2023-09-30T06:32:37;16.17;;;11.02;;
80891;SDS011;70343;51.530;5.050;2023-09-30T06:35:02;22.38;;;11.50;;
80891;SDS011;70343;51.530;5.050;2023-09-30T06:37:29;19.40;;;11.02;;
80891;SDS011;70343;51.530;5.050;2023-09-30T06:39:55;14.57;;;10.43;;
80891;SDS011;70343;51.530;5.050;2023-09-30T06:42:21;22.27;;;12.63;;
80891;SDS011;70343;51.530;5.050;2023-09-30T06:44:47;24.05;;;12.43;;
80891;SDS011;70343;51.530;5.050;2023-09-30T06:47:12;23.30;;;12.85;;
80891;SDS011;70343;51.530;5.050;2023-09-30T06:49:38;23.67;;;13.40;;
80891;SDS011;70343;51.530;5.050;2023-09-30T06:52:04;22.77;;;12.90;;
80891;SDS011;70343;51.530;5.050;2023-09-30T06:54:30;22.10;;;13.05;;
80891;SDS011;70343;51.530;5.050;2023-09-30T06:56:56;27.45;;;13.60;;
80891;SDS011;70343;51.530;5.050;2023-09-30T06:59:22;26.63;;;11.98;;
80891;SDS011;70343;51.530;5.050;2023-09-30T07:01:47;20.05;;;11.93;;
80891;SDS011;70343;51.530;5.050;2023-09-30T07:04:13;28.00;;;13.25;;
80891;SDS011;70343;51.530;5.050;2023-09-30T07:06:38;23.48;;;11.38;;
80891;SDS011;70343;51.530;5.050;2023-09-30T07:09:04;30.52;;;12.63;;
80891;SDS011;70343;51.530;5.050;2023-09-30T07:11:29;20.38;;;11.48;;
80891;SDS011;70343;51.530;5.050;2023-09-30T07:13:59;18.98;;;10.20;;
80891;SDS011;70343;51.530;5.050;2023-09-30T07:16:25;24.33;;;11.50;;
80891;SDS011;70343;51.530;5.050;2023-09-30T07:18:51;18.35;;;10.75;;
80891;SDS011;70343;51.530;5.050;2023-09-30T07:21:16;24.58;;;11.13;;
80891;SDS011;70343;51.530;5.050;2023-09-30T07:23:42;19.15;;;9.98;;
80891;SDS011;70343;51.530;5.050;2023-09-30T07:26:07;19.75;;;11.23;;
80891;SDS011;70343;51.530;5.050;2023-09-30T07:28:33;19.50;;;11.10;;
80891;SDS011;70343;51.530;5.050;2023-09-30T07:30:59;16.02;;;11.27;;
80891;SDS011;70343;51.530;5.050;2023-09-30T07:33:24;19.63;;;10.82;;
80891;SDS011;70343;51.530;5.050;2023-09-30T07:35:50;24.92;;;11.73;;
80891;SDS011;70343;51.530;5.050;2023-09-30T07:38:15;24.75;;;13.43;;
80891;SDS011;70343;51.530;5.050;2023-09-30T07:40:41;21.67;;;11.75;;
80891;SDS011;70343;51.530;5.050;2023-09-30T07:43:07;20.90;;;12.73;;
80891;SDS011;70343;51.530;5.050;2023-09-30T07:45:32;24.83;;;14.35;;
80891;SDS011;70343;51.530;5.050;2023-09-30T07:47:58;23.73;;;11.75;;
80891;SDS011;70343;51.530;5.050;2023-09-30T07:50:24;23.55;;;13.13;;
80891;SDS011;70343;51.530;5.050;2023-09-30T07:52:49;25.67;;;12.50;;
80891;SDS011;70343;51.530;5.050;2023-09-30T07:55:15;26.92;;;14.55;;
80891;SDS011;70343;51.530;5.050;2023-09-30T07:57:41;28.27;;;13.27;;
80891;SDS011;70343;51.530;5.050;2023-09-30T08:00:08;28.73;;;16.17;;
80891;SDS011;70343;51.530;5.050;2023-09-30T08:02:34;28.67;;;14.65;;
80891;SDS011;70343;51.530;5.050;2023-09-30T08:05:01;28.52;;;15.13;;
80891;SDS011;70343;51.530;5.050;2023-09-30T08:07:27;33.53;;;16.35;;
80891;SDS011;70343;51.530;5.050;2023-09-30T08:09:53;34.33;;;15.98;;
80891;SDS011;70343;51.530;5.050;2023-09-30T08:12:18;36.20;;;16.83;;
80891;SDS011;70343;51.530;5.050;2023-09-30T08:14:44;31.95;;;16.70;;
80891;SDS011;70343;51.530;5.050;2023-09-30T08:17:10;33.22;;;17.33;;
80891;SDS011;70343;51.530;5.050;2023-09-30T08:19:36;32.28;;;17.60;;
80891;SDS011;70343;51.530;5.050;2023-09-30T08:22:02;34.22;;;17.38;;
80891;SDS011;70343;51.530;5.050;2023-09-30T08:24:28;36.92;;;18.20;;
80891;SDS011;70343;51.530;5.050;2023-09-30T08:26:54;30.52;;;16.90;;
80891;SDS011;70343;51.530;5.050;2023-09-30T08:29:21;33.72;;;17.77;;
80891;SDS011;70343;51.530;5.050;2023-09-30T08:31:47;43.30;;;20.20;;
80891;SDS011;70343;51.530;5.050;2023-09-30T08:34:14;31.98;;;16.27;;
80891;SDS011;70343;51.530;5.050;2023-09-30T08:36:40;38.95;;;18.83;;
80891;SDS011;70343;51.530;5.050;2023-09-30T08:39:06;43.28;;;21.25;;
80891;SDS011;70343;51.530;5.050;2023-09-30T08:41:33;36.95;;;17.40;;
80891;SDS011;70343;51.530;5.050;2023-09-30T08:44:00;40.78;;;18.85;;
80891;SDS011;70343;51.530;5.050;2023-09-30T08:46:33;36.67;;;18.83;;
80891;SDS011;70343;51.530;5.050;2023-09-30T08:49:03;44.33;;;21.55;;
80891;SDS011;70343;51.530;5.050;2023-09-30T08:51:30;50.08;;;22.08;;
80891;SDS011;70343;51.530;5.050;2023-09-30T08:53:56;49.25;;;22.85;;
80891;SDS011;70343;51.530;5.050;2023-09-30T08:56:24;47.80;;;21.88;;
80891;SDS011;70343;51.530;5.050;2023-09-30T08:58:56;49.80;;;22.40;;
80891;SDS011;70343;51.530;5.050;2023-09-30T09:01:24;49.20;;;22.65;;
80891;SDS011;70343;51.530;5.050;2023-09-30T09:03:50;40.88;;;21.42;;
80891;SDS011;70343;51.530;5.050;2023-09-30T09:06:21;46.45;;;23.45;;
80891;SDS011;70343;51.530;5.050;2023-09-30T09:08:47;43.65;;;21.08;;
80891;SDS011;70343;51.530;5.050;2023-09-30T09:11:13;46.75;;;22.65;;
80891;SDS011;70343;51.530;5.050;2023-09-30T09:13:46;49.53;;;22.90;;
80891;SDS011;70343;51.530;5.050;2023-09-30T09:16:15;46.00;;;23.20;;
80891;SDS011;70343;51.530;5.050;2023-09-30T09:18:43;43.40;;;20.88;;
80891;SDS011;70343;51.530;5.050;2023-09-30T09:21:09;48.22;;;22.38;;
80891;SDS011;70343;51.530;5.050;2023-09-30T09:23:41;48.88;;;23.05;;
80891;SDS011;70343;51.530;5.050;2023-09-30T09:26:06;46.38;;;23.95;;
80891;SDS011;70343;51.530;5.050;2023-09-30T09:28:36;50.58;;;23.50;;
80891;SDS011;70343;51.530;5.050;2023-09-30T09:31:18;52.10;;;25.23;;
80891;SDS011;70343;51.530;5.050;2023-09-30T09:33:51;49.20;;;23.02;;
80891;SDS011;70343;51.530;5.050;2023-09-30T09:36:17;54.05;;;25.63;;
80891;SDS011;70343;51.530;5.050;2023-09-30T09:38:49;47.70;;;24.98;;
80891;SDS011;70343;51.530;5.050;2023-09-30T09:41:18;48.58;;;24.08;;
80891;SDS011;70343;51.530;5.050;2023-09-30T09:43:43;48.10;;;24.05;;
80891;SDS011;70343;51.530;5.050;2023-09-30T09:46:10;47.88;;;23.80;;
80891;SDS011;70343;51.530;5.050;2023-09-30T09:48:37;49.53;;;24.45;;
80891;SDS011;70343;51.530;5.050;2023-09-30T09:51:06;51.28;;;23.67;;
80891;SDS011;70343;51.530;5.050;2023-09-30T09:53:34;46.53;;;23.70;;
80891;SDS011;70343;51.530;5.050;2023-09-30T09:56:03;46.47;;;23.05;;
80891;SDS011;70343;51.530;5.050;2023-09-30T09:58:35;49.58;;;24.00;;
80891;SDS011;70343;51.530;5.050;2023-09-30T10:01:05;47.78;;;23.83;;
80891;SDS011;70343;51.530;5.050;2023-09-30T10:03:31;43.60;;;23.40;;
80891;SDS011;70343;51.530;5.050;2023-09-30T10:05:58;47.42;;;23.75;;
80891;SDS011;70343;51.530;5.050;2023-09-30T10:08:30;45.00;;;24.13;;
80891;SDS011;70343;51.530;5.050;2023-09-30T10:11:00;43.50;;;23.85;;
80891;SDS011;70343;51.530;5.050;2023-09-30T10:19:11;32.42;;;19.52;;
80891;SDS011;70343;51.530;5.050;2023-09-30T10:21:39;35.38;;;18.92;;
80891;SDS011;70343;51.530;5.050;2023-09-30T10:35:19;27.20;;;14.38;;
80891;SDS011;70343;51.530;5.050;2023-09-30T10:37:46;28.75;;;13.90;;
80891;SDS011;70343;51.530;5.050;2023-09-30T10:40:28;21.45;;;13.15;;
80891;SDS011;70343;51.530;5.050;2023-09-30T10:42:55;18.98;;;10.77;;
80891;SDS011;70343;51.530;5.050;2023-09-30T10:50:53;18.48;;;8.65;;
80891;SDS011;70343;51.530;5.050;2023-09-30T10:53:24;17.10;;;8.43;;
80891;SDS011;70343;51.530;5.050;2023-09-30T10:55:58;16.70;;;8.55;;
80891;SDS011;70343;51.530;5.050;2023-09-30T10:58:43;14.90;;;7.75;;
80891;SDS011;70343;51.530;5.050;2023-09-30T11:01:10;19.50;;;7.85;;
80891;SDS011;70343;51.530;5.050;2023-09-30T11:03:38;15.00;;;7.30;;
80891;SDS011;70343;51.530;5.050;2023-09-30T11:06:04;14.88;;;6.35;;
80891;SDS011;70343;51.530;5.050;2023-09-30T11:08:30;13.93;;;6.65;;
80891;SDS011;70343;51.530;5.050;2023-09-30T11:10:56;13.32;;;6.03;;
80891;SDS011;70343;51.530;5.050;2023-09-30T11:13:21;12.65;;;6.65;;
80891;SDS011;70343;51.530;5.050;2023-09-30T11:15:47;14.93;;;6.63;;
80891;SDS011;70343;51.530;5.050;2023-09-30T11:18:24;13.25;;;6.43;;
80891;SDS011;70343;51.530;5.050;2023-09-30T11:20:49;14.05;;;6.72;;
80891;SDS011;70343;51.530;5.050;2023-09-30T11:23:15;15.43;;;5.70;;
80891;SDS011;70343;51.530;5.050;2023-09-30T11:25:41;13.30;;;5.97;;
80891;SDS011;70343;51.530;5.050;2023-09-30T11:28:16;12.93;;;5.22;;
80891;SDS011;70343;51.530;5.050;2023-09-30T11:33:48;12.95;;;5.28;;
80891;SDS011;70343;51.530;5.050;2023-09-30T11:36:21;13.23;;;5.57;;
80891;SDS011;70343;51.530;5.050;2023-09-30T11:38:47;12.95;;;4.95;;
80891;SDS011;70343;51.530;5.050;2023-09-30T11:41:14;11.40;;;5.35;;
80891;SDS011;70343;51.530;5.050;2023-09-30T11:44:01;10.00;;;4.82;;
80891;SDS011;70343;51.530;5.050;2023-09-30T11:46:57;9.45;;;3.85;;
80891;SDS011;70343;51.530;5.050;2023-09-30T11:52:04;15.38;;;5.15;;
80891;SDS011;70343;51.530;5.050;2023-09-30T11:57:09;9.60;;;4.10;;
80891;SDS011;70343;51.530;5.050;2023-09-30T11:59:36;10.88;;;4.00;;
80891;SDS011;70343;51.530;5.050;2023-09-30T12:02:03;11.63;;;3.63;;
80891;SDS011;70343;51.530;5.050;2023-09-30T12:04:33;9.02;;;3.88;;
80891;SDS011;70343;51.530;5.050;2023-09-30T12:06:59;11.57;;;3.95;;
80891;SDS011;70343;51.530;5.050;2023-09-30T12:09:25;8.88;;;3.70;;
80891;SDS011;70343;51.530;5.050;2023-09-30T12:11:52;8.85;;;3.85;;
80891;SDS011;70343;51.530;5.050;2023-09-30T12:14:19;8.85;;;4.03;;
80891;SDS011;70343;51.530;5.050;2023-09-30T12:16:46;12.82;;;4.05;;
80891;SDS011;70343;51.530;5.050;2023-09-30T12:19:19;9.35;;;3.45;;
80891;SDS011;70343;51.530;5.050;2023-09-30T12:21:45;9.63;;;3.08;;
80891;SDS011;70343;51.530;5.050;2023-09-30T12:24:16;9.15;;;3.22;;
80891;SDS011;70343;51.530;5.050;2023-09-30T12:26:46;11.18;;;3.85;;
80891;SDS011;70343;51.530;5.050;2023-09-30T12:29:15;8.80;;;3.35;;
80891;SDS011;70343;51.530;5.050;2023-09-30T12:31:44;11.70;;;3.50;;
80891;SDS011;70343;51.530;5.050;2023-09-30T12:34:10;7.03;;;2.45;;
80891;SDS011;70343;51.530;5.050;2023-09-30T12:36:36;7.03;;;2.28;;
80891;SDS011;70343;51.530;5.050;2023-09-30T12:39:02;6.25;;;2.20;;
80891;SDS011;70343;51.530;5.050;2023-09-30T12:41:38;7.50;;;3.17;;
80891;SDS011;70343;51.530;5.050;2023-09-30T12:44:05;8.18;;;2.80;;
80891;SDS011;70343;51.530;5.050;2023-09-30T12:46:34;6.78;;;2.75;;
80891;SDS011;70343;51.530;5.050;2023-09-30T12:49:11;6.78;;;2.33;;
80891;SDS011;70343;51.530;5.050;2023-09-30T12:51:36;6.57;;;2.20;;
80891;SDS011;70343;51.530;5.050;2023-09-30T12:54:03;6.55;;;2.17;;
80891;SDS011;70343;51.530;5.050;2023-09-30T12:56:29;8.18;;;2.50;;
80891;SDS011;70343;51.530;5.050;2023-09-30T12:58:55;9.95;;;2.95;;
80891;SDS011;70343;51.530;5.050;2023-09-30T13:01:21;9.27;;;3.85;;
80891;SDS011;70343;51.530;5.050;2023-09-30T13:03:47;7.93;;;2.88;;
80891;SDS011;70343;51.530;5.050;2023-09-30T13:06:14;6.78;;;2.90;;
80891;SDS011;70343;51.530;5.050;2023-09-30T13:08:41;9.65;;;3.05;;
80891;SDS011;70343;51.530;5.050;2023-09-30T13:11:07;6.65;;;2.53;;
80891;SDS011;70343;51.530;5.050;2023-09-30T13:13:33;11.02;;;3.50;;
80891;SDS011;70343;51.530;5.050;2023-09-30T13:15:59;11.40;;;3.88;;
80891;SDS011;70343;51.530;5.050;2023-09-30T13:18:30;8.10;;;3.03;;
80891;SDS011;70343;51.530;5.050;2023-09-30T13:20:57;10.43;;;3.00;;
80891;SDS011;70343;51.530;5.050;2023-09-30T13:23:23;7.25;;;2.70;;
80891;SDS011;70343;51.530;5.050;2023-09-30T13:25:48;8.05;;;2.63;;
80891;SDS011;70343;51.530;5.050;2023-09-30T13:28:14;10.73;;;2.33;;
80891;SDS011;70343;51.530;5.050;2023-09-30T13:30:39;7.95;;;2.72;;
80891;SDS011;70343;51.530;5.050;2023-09-30T13:33:05;8.52;;;2.50;;
80891;SDS011;70343;51.530;5.050;2023-09-30T13:35:31;5.80;;;2.20;;
80891;SDS011;70343;51.530;5.050;2023-09-30T13:37:57;10.13;;;3.30;;
80891;SDS011;70343;51.530;5.050;2023-09-30T13:40:23;12.98;;;2.78;;
80891;SDS011;70343;51.530;5.050;2023-09-30T13:42:48;7.07;;;2.55;;
80891;SDS011;70343;51.530;5.050;2023-09-30T13:45:14;6.70;;;2.20;;
80891;SDS011;70343;51.530;5.050;2023-09-30T13:47:42;8.13;;;2.53;;
80891;SDS011;70343;51.530;5.050;2023-09-30T13:50:08;5.97;;;2.60;;
80891;SDS011;70343;51.530;5.050;2023-09-30T13:52:34;5.88;;;2.45;;
80891;SDS011;70343;51.530;5.050;2023-09-30T13:55:00;7.45;;;2.55;;
80891;SDS011;70343;51.530;5.050;2023-09-30T13:57:27;7.63;;;2.60;;
80891;SDS011;70343;51.530;5.050;2023-09-30T13:59:52;9.88;;;2.60;;
80891;SDS011;70343;51.530;5.050;2023-09-30T14:02:18;7.50;;;2.45;;
80891;SDS011;70343;51.530;5.050;2023-09-30T14:04:43;7.82;;;2.30;;
80891;SDS011;70343;51.530;5.050;2023-09-30T14:07:10;7.28;;;2.50;;
80891;SDS011;70343;51.530;5.050;2023-09-30T14:09:35;6.35;;;2.17;;
80891;SDS011;70343;51.530;5.050;2023-09-30T14:12:01;8.27;;;3.08;;
80891;SDS011;70343;51.530;5.050;2023-09-30T14:14:30;7.60;;;2.78;;
80891;SDS011;70343;51.530;5.050;2023-09-30T14:16:57;6.22;;;2.30;;
80891;SDS011;70343;51.530;5.050;2023-09-30T14:19:22;7.28;;;2.38;;
80891;SDS011;70343;51.530;5.050;2023-09-30T14:21:48;6.63;;;2.72;;
80891;SDS011;70343;51.530;5.050;2023-09-30T14:24:14;6.32;;;2.40;;
80891;SDS011;70343;51.530;5.050;2023-09-30T14:26:40;7.40;;;2.35;;
80891;SDS011;70343;51.530;5.050;2023-09-30T14:29:05;7.88;;;2.75;;
80891;SDS011;70343;51.530;5.050;2023-09-30T14:31:31;7.55;;;2.72;;
80891;SDS011;70343;51.530;5.050;2023-09-30T14:33:57;4.75;;;2.17;;
80891;SDS011;70343;51.530;5.050;2023-09-30T14:36:22;8.82;;;2.78;;
80891;SDS011;70343;51.530;5.050;2023-09-30T14:38:48;5.80;;;2.33;;
80891;SDS011;70343;51.530;5.050;2023-09-30T14:41:14;9.80;;;2.90;;
80891;SDS011;70343;51.530;5.050;2023-09-30T14:43:40;8.80;;;2.80;;
80891;SDS011;70343;51.530;5.050;2023-09-30T14:46:06;7.53;;;2.47;;
80891;SDS011;70343;51.530;5.050;2023-09-30T14:48:33;10.77;;;3.00;;
80891;SDS011;70343;51.530;5.050;2023-09-30T14:51:00;9.07;;;2.63;;
80891;SDS011;70343;51.530;5.050;2023-09-30T14:53:28;8.88;;;2.40;;
80891;SDS011;70343;51.530;5.050;2023-09-30T14:55:53;7.40;;;3.20;;
80891;SDS011;70343;51.530;5.050;2023-09-30T14:58:19;9.80;;;3.17;;
80891;SDS011;70343;51.530;5.050;2023-09-30T15:00:44;5.78;;;2.58;;
80891;SDS011;70343;51.530;5.050;2023-09-30T15:03:09;8.48;;;2.75;;
80891;SDS011;70343;51.530;5.050;2023-09-30T15:05:36;8.05;;;2.90;;
80891;SDS011;70343;51.530;5.050;2023-09-30T15:08:01;9.88;;;2.83;;